Airport View

Enter AWOS ICAO identifier for current METAR.

ex. KFNL

KCIU 191856Z AUTO 00000KT 10SM FEW022 BKN048 OVC080 19/13 A2981 RMK AO2 SLP094 T01940133

19 Jun 2019 19:14

Frequency: 127.575

Phone: 906-495-7134

Other Area AWOS: CYAM - KANJ - KMCD - KDRM

TAF CYAM 191339Z 1914/2002 29008KT P6SM SCT015 BKN040 TEMPO 1914/1916 BKN015 FM191800 29010KT P6SM BKN050 TEMPO 1918/2002 SCT050 RMK NXT FCST BY 192000Z